»·PEaware :: N665CS KOAK-KMRY

N665CS :: KOAK-KMRY

FLIGHT INFORMATION

Flight Status: Arrived
Operator: Privately registered:
United States
More flights under this callsign
Pilot: Jiekun W. (33071)
Aircraft: SOCATA TBM-900
(TBM9)
More flights by this aircraft type
Origin: KOAK Metro Oakland Intl
United States
Destination: KMRY Monterey Peninsula
United States
More flights between these airports :: More routes between these airports
Route: NUEVO8 SHOEY SNS
File this flight plan on PilotEdge
Remarks: RMK / SIMBRIEF
Altitude:
(Current/Filed)
7,000ft
Speed:
(Current/Filed)
250kts
Departed: 31-Dec-20 11:40 AM
Arrived: 31-Dec-20 12:18 PM
Distance/Time
Traveled:
70nm/0:38
Distance/Time
To Go:
Arrived

Flight Plot

Page will automatically refresh every two minutes.

Flight plan parsing failed; only flown route is shown


Map Options




Map Legend


Flown Route
Filed Route
Departure Airport
Arrival Airport
Navaid (VOR, NDB)
Fix

Horizontal Profiles

Position Reports

Time Latitude Longitude Heading Altitude Ground
Speed
31-Dec-20 11:14 37.729797 -122.212334 303 6ft 0kts
31-Dec-20 11:15 37.729797 -122.212334 303 6ft 0kts
31-Dec-20 11:16 37.729797 -122.212334 303 6ft 0kts
31-Dec-20 11:17 37.729797 -122.212334 303 6ft 0kts
31-Dec-20 11:18 37.729797 -122.212334 303 6ft 0kts
31-Dec-20 11:19 37.729797 -122.212334 303 6ft 0kts
31-Dec-20 11:20 37.729797 -122.212334 303 6ft 0kts
31-Dec-20 11:21 37.729797 -122.212334 303 6ft 0kts
31-Dec-20 11:22 37.729797 -122.212334 303 6ft 0kts
31-Dec-20 11:23 37.729797 -122.212334 303 6ft 0kts
31-Dec-20 11:24 37.729797 -122.212334 303 6ft 0kts
31-Dec-20 11:25 37.729797 -122.212334 303 6ft 0kts
31-Dec-20 11:26 37.729797 -122.212334 303 6ft 0kts
31-Dec-20 11:27 37.729797 -122.212334 303 6ft 0kts
31-Dec-20 11:28 37.729797 -122.212334 303 6ft 0kts
31-Dec-20 11:29 37.729797 -122.212334 303 6ft 0kts
31-Dec-20 11:30 37.729797 -122.212334 303 6ft 0kts
31-Dec-20 11:31 37.729851 -122.212467 281 6ft 2kts
31-Dec-20 11:32 37.728251 -122.212065 112 6ft 10kts
31-Dec-20 11:33 37.727088 -122.208477 112 6ft 11kts
31-Dec-20 11:34 37.725784 -122.205053 123 6ft 0kts
31-Dec-20 11:35 37.725784 -122.205053 122 6ft 0kts
31-Dec-20 11:36 37.725784 -122.205053 122 6ft 0kts
31-Dec-20 11:37 37.725784 -122.205053 122 6ft 0kts
31-Dec-20 11:38 37.725003 -122.204781 225 6ft 9kts
31-Dec-20 11:39 37.730537 -122.221558 294 674ft 104kts
31-Dec-20 11:40 37.744444 -122.262216 296 1990ft 144kts
31-Dec-20 11:41 37.760751 -122.312181 296 2191ft 138kts
31-Dec-20 11:42 37.775208 -122.357900 291 3278ft 142kts
31-Dec-20 11:44 37.787251 -122.403557 291 5711ft 136kts
31-Dec-20 11:45 37.798919 -122.452137 291 7018ft 166kts
31-Dec-20 11:46 37.814548 -122.515105 291 7004ft 203kts
31-Dec-20 11:47 37.831865 -122.585011 291 6994ft 208kts
31-Dec-20 11:48 37.849089 -122.656246 291 6995ft 211kts
31-Dec-20 11:49 37.860247 -122.729196 250 6976ft 228kts
31-Dec-20 11:50 37.802568 -122.719797 155 6979ft 253kts
31-Dec-20 11:51 37.737529 -122.679233 153 6997ft 262kts
31-Dec-20 11:52 37.666231 -122.665429 180 6998ft 260kts
31-Dec-20 11:53 37.593470 -122.656455 169 7000ft 262kts
31-Dec-20 11:54 37.521037 -122.636883 169 7034ft 262kts
31-Dec-20 11:55 37.448589 -122.620026 171 7007ft 260kts
31-Dec-20 11:56 37.377802 -122.604393 174 7006ft 254kts
31-Dec-20 11:57 37.306849 -122.592422 174 7009ft 254kts
31-Dec-20 11:58 37.238245 -122.577194 135 7009ft 253kts
31-Dec-20 11:58 37.191847 -122.530824 142 7010ft 255kts
31-Dec-20 12:00 37.123426 -122.470436 143 7010ft 256kts
31-Dec-20 12:01 37.064913 -122.418763 143 7011ft 256kts
31-Dec-20 12:02 37.006059 -122.366302 144 7009ft 258kts
31-Dec-20 12:02 36.957123 -122.322787 145 7009ft 257kts
31-Dec-20 12:03 36.898185 -122.270511 147 7003ft 255kts
31-Dec-20 12:04 36.845488 -122.212109 124 6968ft 256kts
31-Dec-20 12:05 36.810358 -122.137616 123 5946ft 235kts
31-Dec-20 12:06 36.779993 -122.070501 123 4981ft 201kts
31-Dec-20 12:07 36.752794 -122.012006 123 4991ft 195kts
31-Dec-20 12:08 36.723817 -121.953668 122 4985ft 193kts
31-Dec-20 12:09 36.694098 -121.897470 122 4953ft 193kts
31-Dec-20 12:10 36.671172 -121.855826 122 4138ft 117kts
31-Dec-20 12:11 36.657080 -121.821287 109 3081ft 109kts
31-Dec-20 12:12 36.645428 -121.785892 109 2106ft 111kts
31-Dec-20 12:13 36.620800 -121.775909 192 2113ft 101kts
31-Dec-20 12:14 36.596839 -121.790655 212 1720ft 99kts
31-Dec-20 12:15 36.577226 -121.809908 266 840ft 87kts
31-Dec-20 12:16 36.584677 -121.837479 291 244ft 66kts
31-Dec-20 12:17 36.587287 -121.845523 260 190ft 11kts
31-Dec-20 12:18 36.586788 -121.846103 260 193ft 0kts
31-Dec-20 12:19 36.588417 -121.851099 291 173ft 20kts
31-Dec-20 12:20 36.588527 -121.853522 286 169ft 6kts
31-Dec-20 12:21 36.588653 -121.853578 38 168ft 0kts

Navigation Log

Ident Type
Flight plan parsing failed, navigation log unavailable